Skip Navigation LinksHome page > Weather > Current weather Skip Navigation Links

Current Weather

New Tokyo International (Narita), Tokyo

For information only: do not use for flight planning or navigation.
Latest weather
Observation time Sunday, November 23, 2014 1:00 AM JST
Local time Sunday, November 23, 2014 1:20 AM JST
Flight conditions Visual Meteorological Conditions
Winds
Wind direction North-Northwest (330°)
Wind speed 3 mph
Visibility 6.2 mi.
Present weather MIFG
Sky condition
Ceiling unlimited
Cloud layer few clouds 1,000 ft.
Cloud layer scattered clouds 3,000 ft.
Temperature 50°F
Dewpoint 46°F
Altimeter 30.12 in.Hg
Derived measurements
Relative humidity 87%
Wind chill 49°F
Density altitude -529 ft.
Remarks
No significant changes expected in the next two hours.
METAR RJAA 221600Z 33003KT 9999 MIFG FEW010 SCT030 10/08 Q1020 NOSIG RMK 1ST010 3SC030 A3014

Settings

Location code

InnerDrive.Weather 4.0.5399.0 Release CLR 4.0.30319.34014
Copyright ©2014 Inner Drive Technology. All rights reserved. Portions Copyright ©1986-2014 David Braverman.

Find weather

Site navigation


Skip Navigation Links

Place info

Page info

PayPal - The safer, easier way to pay online!

Return home.

Copyright ©2014 Inner Drive Technology. Purveyors of fine, hand-crafted computer software. Page printed 2014-11-22T16:20:15 UTC.